Time;durP1;ratioP1;P1;durP2;ratioP2;P2;SDS_P1;SDS_P2;PMS_P1;PMS_P2;Temp;Humidity;BMP_temperature;BMP_pressure;BME280_temperature;BME280_humidity;BME280_pressure;Samples;Min_cycle;Max_cycle;Signal;HPM_P1;HPM_P2
2023/07/27 00:00:54;;;;;;;;;;;15.00;99.90;;;;;;2069216;28;20336;-77
2023/07/27 00:01:54;;;;;;;;;;;15.00;99.90;;;;;;2078334;28;20435;-78
2023/07/27 00:02:55;;;;;;;;;;;15.00;99.90;;;;;;2071089;28;19923;-79
2023/07/27 00:03:55;;;;;;;;;;;15.10;99.90;;;;;;2067574;28;19925;-79
2023/07/27 00:04:56;;;;;;;;;;;15.10;99.90;;;;;;2059313;28;19957;-78
2023/07/27 00:05:56;;;;;;;;;;;15.10;99.90;;;;;;2079383;28;19909;-79
2023/07/27 00:06:57;;;;;;;;;;;15.10;99.90;;;;;;2081237;28;19924;-78
2023/07/27 00:07:58;;;;;;;;;;;15.10;99.90;;;;;;2069497;28;19917;-79
2023/07/27 00:08:58;;;;;;;;;;;15.10;99.90;;;;;;2079316;28;19921;-77
2023/07/27 00:09:59;;;;;;;;;;;15.10;99.90;;;;;;2076793;28;20044;-77
2023/07/27 00:10:59;;;;;;;;;;;15.10;99.90;;;;;;2080097;28;20291;-76
2023/07/27 00:12:00;;;;;;;;;;;15.10;99.90;;;;;;2059768;28;19913;-77
2023/07/27 00:13:00;;;;;;;;;;;15.10;99.90;;;;;;2071454;28;19909;-79
2023/07/27 00:14:01;;;;;;;;;;;15.10;99.90;;;;;;2066202;28;19926;-78
2023/07/27 00:15:01;;;;;;;;;;;15.10;99.90;;;;;;2065174;28;19988;-79
2023/07/27 00:16:02;;;;;;;;;;;15.10;99.90;;;;;;2075707;28;20203;-79
2023/07/27 00:17:03;;;;;;;;;;;15.10;99.90;;;;;;2072243;28;19920;-78
2023/07/27 00:18:03;;;;;;;;;;;15.10;99.90;;;;;;2072261;28;20023;-78
2023/07/27 00:19:04;;;;;;;;;;;15.10;99.90;;;;;;2077722;28;20063;-78
2023/07/27 00:20:04;;;;;;;;;;;15.00;99.90;;;;;;2075398;28;19917;-78
2023/07/27 00:21:05;;;;;;;;;;;15.00;99.90;;;;;;2069221;28;19928;-78
2023/07/27 00:22:06;;;;;;;;;;;15.00;99.90;;;;;;2061095;28;19961;-79
2023/07/27 00:23:06;;;;;;;;;;;14.90;99.90;;;;;;2059353;28;19968;-79
2023/07/27 00:24:07;;;;;;;;;;;14.90;99.90;;;;;;2069611;28;19913;-77
2023/07/27 00:25:07;;;;;;;;;;;14.90;99.90;;;;;;2075452;28;20007;-77
2023/07/27 00:26:08;;;;;;;;;;;14.90;99.90;;;;;;2067649;28;19971;-78
2023/07/27 00:27:08;;;;;;;;;;;14.80;99.90;;;;;;2072106;28;19923;-78
2023/07/27 00:28:09;;;;;;;;;;;14.80;99.90;;;;;;2073464;28;19928;-77
2023/07/27 00:29:09;;;;;;;;;;;14.80;99.90;;;;;;2070747;28;20388;-78
2023/07/27 00:30:12;;;;;;;;;;;14.80;99.90;;;;;;2070674;28;19948;-78
2023/07/27 00:31:13;;;;;;;;;;;14.70;99.90;;;;;;2067600;28;19913;-77
2023/07/27 00:32:13;;;;;;;;;;;14.70;99.90;;;;;;2079319;28;19917;-77
2023/07/27 00:33:14;;;;;;;;;;;14.60;99.90;;;;;;2072947;28;20061;-79
2023/07/27 00:34:14;;;;;;;;;;;14.70;99.90;;;;;;2077446;28;19925;-79
2023/07/27 00:35:16;;;;;;;;;;;14.60;99.90;;;;;;2077449;28;20000;-79
2023/07/27 00:36:17;;;;;;;;;;;14.70;99.90;;;;;;2075507;28;19913;-79
2023/07/27 00:37:18;;;;;;;;;;;14.70;99.90;;;;;;2067356;28;19956;-79
2023/07/27 00:38:19;;;;;;;;;;;14.60;99.90;;;;;;2069231;28;19925;-79
2023/07/27 00:39:19;;;;;;;;;;;14.60;99.90;;;;;;2072620;28;20322;-79
2023/07/27 00:40:21;;;;;;;;;;;14.60;99.90;;;;;;2067280;28;20389;-79
2023/07/27 00:41:22;;;;;;;;;;;14.60;99.90;;;;;;2069228;28;19913;-79
2023/07/27 00:42:22;;;;;;;;;;;14.50;99.90;;;;;;2065976;28;19913;-79
2023/07/27 00:43:23;;;;;;;;;;;14.50;99.90;;;;;;2069224;28;19909;-78
2023/07/27 00:44:24;;;;;;;;;;;14.50;99.90;;;;;;2062873;28;19961;-79
2023/07/27 00:45:26;;;;;;;;;;;14.50;99.90;;;;;;2072655;28;19984;-78
2023/07/27 00:46:27;;;;;;;;;;;14.50;99.90;;;;;;2079096;28;19921;-79
2023/07/27 00:47:27;;;;;;;;;;;14.50;99.90;;;;;;2059118;28;19992;-79
2023/07/27 00:48:28;;;;;;;;;;;14.50;99.90;;;;;;2059359;28;20392;-79
2023/07/27 00:49:29;;;;;;;;;;;14.50;99.90;;;;;;2075499;28;19913;-79
2023/07/27 00:50:30;;;;;;;;;;;14.50;99.90;;;;;;2067143;28;19922;-79
2023/07/27 00:51:34;;;;;;;;;;;14.50;99.90;;;;;;2069032;28;19917;-78
2023/07/27 00:52:35;;;;;;;;;;;14.40;99.90;;;;;;2064696;28;19949;-77
2023/07/27 00:53:35;;;;;;;;;;;14.40;99.90;;;;;;2067420;28;19960;-78
2023/07/27 00:54:36;;;;;;;;;;;14.40;99.90;;;;;;2067289;28;19914;-77
2023/07/27 00:55:38;;;;;;;;;;;14.40;99.90;;;;;;2081112;28;19936;-77
2023/07/27 00:56:38;;;;;;;;;;;14.40;99.90;;;;;;2080172;28;19935;-78
2023/07/27 00:57:39;;;;;;;;;;;14.40;99.90;;;;;;2072064;28;20237;-78
2023/07/27 00:58:41;;;;;;;;;;;14.40;99.90;;;;;;2072048;28;20288;-78
2023/07/27 00:59:42;;;;;;;;;;;14.40;99.90;;;;;;2059544;28;20005;-79
2023/07/27 01:00:42;;;;;;;;;;;14.40;99.90;;;;;;2064052;28;19913;-78
2023/07/27 01:01:43;;;;;;;;;;;14.40;99.90;;;;;;2057277;28;20000;-78
2023/07/27 01:02:43;;;;;;;;;;;14.40;99.90;;;;;;2062144;28;20013;-78
2023/07/27 01:03:44;;;;;;;;;;;14.40;99.90;;;;;;2070469;28;20398;-78
2023/07/27 01:04:45;;;;;;;;;;;14.40;99.90;;;;;;2069019;28;19924;-79
2023/07/27 01:05:46;;;;;;;;;;;14.40;99.90;;;;;;2077313;28;19913;-78
2023/07/27 01:06:46;;;;;;;;;;;14.40;99.90;;;;;;2075270;28;19959;-78
2023/07/27 01:07:47;;;;;;;;;;;14.30;99.90;;;;;;2074657;28;19936;-79
2023/07/27 01:08:48;;;;;;;;;;;14.30;99.90;;;;;;2077078;28;19923;-78
2023/07/27 01:09:48;;;;;;;;;;;14.30;99.90;;;;;;2058533;28;20476;-79
2023/07/27 01:10:57;;;;;;;;;;;14.20;99.90;;;;;;2054698;28;19957;-78
2023/07/27 01:12:09;;;;;;;;;;;14.20;99.90;;;;;;2061484;28;19960;-78
2023/07/27 01:13:14;;;;;;;;;;;14.20;99.90;;;;;;2054262;28;19957;-78
2023/07/27 01:14:15;;;;;;;;;;;14.20;99.90;;;;;;2060260;28;19926;-79
2023/07/27 01:15:17;;;;;;;;;;;14.10;99.90;;;;;;2059856;28;19965;-79
2023/07/27 01:16:21;;;;;;;;;;;14.10;99.90;;;;;;2066686;28;19914;-79
2023/07/27 01:17:25;;;;;;;;;;;14.10;99.90;;;;;;2070488;28;19932;-79
2023/07/27 01:18:29;;;;;;;;;;;14.10;99.90;;;;;;2072517;28;20344;-79
2023/07/27 01:19:40;;;;;;;;;;;14.10;99.90;;;;;;2072654;28;19927;-79
2023/07/27 01:20:52;;;;;;;;;;;14.10;99.90;;;;;;2076993;28;19940;-79
2023/07/27 01:22:13;;;;;;;;;;;14.10;99.90;;;;;;2076008;28;20010;-79
2023/07/27 01:23:43;;;;;;;;;;;14.00;99.90;;;;;;2072402;28;20000;-79
2023/07/27 01:24:59;;;;;;;;;;;14.00;99.90;;;;;;2064643;28;20454;-79
2023/07/27 01:25:59;;;;;;;;;;;14.00;99.90;;;;;;2063980;28;19917;-76
2023/07/27 01:27:00;;;;;;;;;;;13.90;99.90;;;;;;2060559;28;20000;-77
2023/07/27 01:28:15;;;;;;;;;;;13.90;99.90;;;;;;2066899;28;19928;-77
2023/07/27 01:29:32;;;;;;;;;;;13.90;99.90;;;;;;2072133;28;20027;-78
2023/07/27 01:30:35;;;;;;;;;;;13.90;99.90;;;;;;2060171;28;19940;-80
2023/07/27 01:31:41;;;;;;;;;;;13.90;99.90;;;;;;2073351;28;19917;-77
2023/07/27 01:32:43;;;;;;;;;;;14.00;99.90;;;;;;2066908;28;19987;-80
2023/07/27 01:33:46;;;;;;;;;;;13.90;99.90;;;;;;2066588;28;20710;-80
2023/07/27 01:34:48;;;;;;;;;;;14.00;99.90;;;;;;2086562;28;19916;-79
2023/07/27 01:36:08;;;;;;;;;;;14.00;99.90;;;;;;2075635;28;19913;-76
2023/07/27 01:37:09;;;;;;;;;;;14.00;99.90;;;;;;2072351;28;19921;-77
2023/07/27 01:38:11;;;;;;;;;;;14.00;99.90;;;;;;2074961;28;19925;-77
2023/07/27 01:39:15;;;;;;;;;;;13.90;99.90;;;;;;2074948;28;19916;-77
2023/07/27 01:40:16;;;;;;;;;;;13.90;99.90;;;;;;2067189;28;19922;-78
2023/07/27 01:41:17;;;;;;;;;;;13.90;99.90;;;;;;2067365;28;19952;-77
2023/07/27 01:42:18;;;;;;;;;;;13.90;99.90;;;;;;2068951;28;19972;-77
2023/07/27 01:43:19;;;;;;;;;;;13.90;99.90;;;;;;2066221;28;19924;-78
2023/07/27 01:44:22;;;;;;;;;;;13.90;99.90;;;;;;2050698;28;19946;-78
2023/07/27 01:45:23;;;;;;;;;;;13.80;99.90;;;;;;2063222;28;19986;-78
2023/07/27 01:46:24;;;;;;;;;;;13.80;99.90;;;;;;2069977;28;19929;-77
2023/07/27 01:47:25;;;;;;;;;;;13.80;99.90;;;;;;2072466;28;20269;-78
2023/07/27 01:48:26;;;;;;;;;;;13.90;99.90;;;;;;2073303;28;20409;-77
2023/07/27 01:49:28;;;;;;;;;;;13.80;99.90;;;;;;2078104;28;19924;-78
2023/07/27 01:50:29;;;;;;;;;;;13.80;99.90;;;;;;2070138;28;20018;-78
2023/07/27 01:51:31;;;;;;;;;;;13.80;99.90;;;;;;2068644;28;20054;-78
2023/07/27 01:52:32;;;;;;;;;;;13.80;99.90;;;;;;2066996;28;19917;-79
2023/07/27 01:53:33;;;;;;;;;;;13.80;99.90;;;;;;2066624;28;20007;-78
2023/07/27 01:54:34;;;;;;;;;;;13.80;99.90;;;;;;2066779;28;20001;-77
2023/07/27 01:55:35;;;;;;;;;;;13.80;99.90;;;;;;2056374;28;19924;-77
2023/07/27 01:56:36;;;;;;;;;;;13.80;99.90;;;;;;2061910;28;19917;-77
2023/07/27 01:57:37;;;;;;;;;;;13.80;99.90;;;;;;2073203;28;20412;-77
2023/07/27 01:58:38;;;;;;;;;;;13.80;99.90;;;;;;2074173;28;19924;-77
2023/07/27 01:59:39;;;;;;;;;;;13.80;99.90;;;;;;2073136;28;19914;-77
2023/07/27 02:00:41;;;;;;;;;;;13.80;99.90;;;;;;2071116;28;20005;-77
2023/07/27 02:01:42;;;;;;;;;;;13.70;99.90;;;;;;2074740;28;20063;-78
2023/07/27 02:02:45;;;;;;;;;;;13.70;99.90;;;;;;2074838;28;19948;-78
2023/07/27 02:03:46;;;;;;;;;;;13.70;99.90;;;;;;2066516;28;19922;-77
2023/07/27 02:04:48;;;;;;;;;;;13.70;99.90;;;;;;2074935;28;19920;-78
2023/07/27 02:05:49;;;;;;;;;;;13.70;99.90;;;;;;2066788;28;19917;-78
2023/07/27 02:06:51;;;;;;;;;;;13.70;99.90;;;;;;2066587;28;19917;-78
2023/07/27 02:07:52;;;;;;;;;;;13.70;99.90;;;;;;2056249;28;19958;-77
2023/07/27 02:08:52;;;;;;;;;;;13.60;99.90;;;;;;2069860;28;19917;-77
2023/07/27 02:09:53;;;;;;;;;;;13.70;99.90;;;;;;2069630;28;19940;-77
2023/07/27 02:10:59;;;;;;;;;;;13.60;99.90;;;;;;2069270;28;19949;-78
2023/07/27 02:12:05;;;;;;;;;;;13.60;99.90;;;;;;2074980;28;19940;-76
2023/07/27 02:13:09;;;;;;;;;;;13.60;99.90;;;;;;2070520;28;20773;-82
2023/07/27 02:14:14;;;;;;;;;;;13.60;99.90;;;;;;2072875;28;20165;-74
2023/07/27 02:15:21;;;;;;;;;;;13.60;99.90;;;;;;2070219;28;19922;-79
2023/07/27 02:16:24;;;;;;;;;;;13.50;99.90;;;;;;2061766;28;19963;-79
2023/07/27 02:17:30;;;;;;;;;;;13.50;99.90;;;;;;2074536;28;19964;-80
2023/07/27 02:18:33;;;;;;;;;;;13.60;99.90;;;;;;2075031;28;19925;-82
2023/07/27 02:19:35;;;;;;;;;;;13.50;99.90;;;;;;2066688;28;19925;-80
2023/07/27 02:20:37;;;;;;;;;;;13.50;99.90;;;;;;2066860;28;20059;-80
2023/07/27 02:21:38;;;;;;;;;;;13.50;99.90;;;;;;2076934;28;19917;-80
2023/07/27 02:22:40;;;;;;;;;;;13.50;99.90;;;;;;2076053;28;20292;-79
2023/07/27 02:23:41;;;;;;;;;;;13.50;99.90;;;;;;2075331;28;19913;-81
2023/07/27 02:24:41;;;;;;;;;;;13.50;99.90;;;;;;2066735;28;20020;-81
2023/07/27 02:25:42;;;;;;;;;;;13.60;99.90;;;;;;2075079;28;20356;-80
2023/07/27 02:26:42;;;;;;;;;;;13.50;99.90;;;;;;2067061;28;19955;-79
2023/07/27 02:27:44;;;;;;;;;;;13.50;99.90;;;;;;2059971;28;20008;-80
2023/07/27 02:28:45;;;;;;;;;;;13.50;99.90;;;;;;2073786;28;19928;-80
2023/07/27 02:29:46;;;;;;;;;;;13.50;99.90;;;;;;2075227;28;20134;-80
2023/07/27 02:30:46;;;;;;;;;;;13.50;99.90;;;;;;2058574;28;19948;-80
2023/07/27 02:31:47;;;;;;;;;;;13.50;99.90;;;;;;2068547;28;19928;-80
2023/07/27 02:32:48;;;;;;;;;;;13.50;99.90;;;;;;2058779;28;19918;-80
2023/07/27 02:33:48;;;;;;;;;;;13.50;99.90;;;;;;2066794;28;19918;-81
2023/07/27 02:34:49;;;;;;;;;;;13.50;99.90;;;;;;2075202;28;19923;-79
2023/07/27 02:35:50;;;;;;;;;;;13.50;99.90;;;;;;2064611;28;19910;-78
2023/07/27 02:36:52;;;;;;;;;;;13.50;99.90;;;;;;2077745;28;19964;-79
2023/07/27 02:37:52;;;;;;;;;;;13.50;99.90;;;;;;2065971;28;19917;-79
2023/07/27 02:38:56;;;;;;;;;;;13.60;99.90;;;;;;2067039;28;19922;-79
2023/07/27 02:39:57;;;;;;;;;;;13.60;99.90;;;;;;2069236;28;19944;-79
2023/07/27 02:40:57;;;;;;;;;;;13.60;99.90;;;;;;2069885;28;19975;-78
2023/07/27 02:41:58;;;;;;;;;;;13.60;99.90;;;;;;2064336;28;20405;-79
2023/07/27 02:42:58;;;;;;;;;;;13.60;99.90;;;;;;2066690;28;19977;-77
2023/07/27 02:43:58;;;;;;;;;;;13.60;99.90;;;;;;2058285;28;20339;-78
2023/07/27 02:45:01;;;;;;;;;;;13.70;99.90;;;;;;2058992;28;19918;-78
2023/07/27 02:46:08;;;;;;;;;;;13.70;99.90;;;;;;2067107;28;20464;-78
2023/07/27 02:47:08;;;;;;;;;;;13.70;99.90;;;;;;2074813;28;19936;-80
2023/07/27 02:48:09;;;;;;;;;;;13.70;99.90;;;;;;2068118;28;19918;-79
2023/07/27 02:49:10;;;;;;;;;;;13.70;99.90;;;;;;2063909;28;19923;-79
2023/07/27 02:50:13;;;;;;;;;;;13.70;99.90;;;;;;2072709;28;19923;-79
2023/07/27 02:51:32;;;;;;;;;;;13.70;99.90;;;;;;2073316;28;19917;-78
2023/07/27 02:52:33;;;;;;;;;;;13.70;99.90;;;;;;2074630;28;20512;-78
2023/07/27 02:53:37;;;;;;;;;;;13.70;99.90;;;;;;2075544;28;19925;-78
2023/07/27 02:54:47;;;;;;;;;;;13.70;99.90;;;;;;2064921;28;19922;-79
2023/07/27 02:56:00;;;;;;;;;;;13.70;99.90;;;;;;2074690;28;19971;-78
2023/07/27 02:57:04;;;;;;;;;;;13.70;99.90;;;;;;2068146;28;19952;-79
2023/07/27 02:58:12;;;;;;;;;;;13.70;99.90;;;;;;2059473;28;20484;-79
2023/07/27 02:59:13;;;;;;;;;;;13.70;99.90;;;;;;2059431;28;19917;-80
2023/07/27 03:00:18;;;;;;;;;;;13.70;99.90;;;;;;2067168;28;19921;-80
2023/07/27 03:01:21;;;;;;;;;;;13.70;99.90;;;;;;2067012;28;19917;-81
2023/07/27 03:02:29;;;;;;;;;;;13.70;99.90;;;;;;2063923;28;19944;-79
2023/07/27 03:03:32;;;;;;;;;;;13.70;99.90;;;;;;2068223;28;20426;-78
2023/07/27 03:04:42;;;;;;;;;;;13.70;99.90;;;;;;2060636;28;19968;-79
2023/07/27 03:05:44;;;;;;;;;;;13.70;99.90;;;;;;2072921;28;20655;-79
2023/07/27 03:06:48;;;;;;;;;;;13.70;99.90;;;;;;2069522;28;19917;-80
2023/07/27 03:07:52;;;;;;;;;;;13.70;99.90;;;;;;2067030;28;19992;-79
2023/07/27 03:08:53;;;;;;;;;;;13.60;99.90;;;;;;2077923;28;19928;-80
2023/07/27 03:09:53;;;;;;;;;;;13.70;99.90;;;;;;2071113;28;20008;-80
2023/07/27 03:10:55;;;;;;;;;;;13.70;99.90;;;;;;2062890;28;19925;-79
2023/07/27 03:11:56;;;;;;;;;;;13.70;99.90;;;;;;2073521;28;19924;-79
2023/07/27 03:12:56;;;;;;;;;;;13.70;99.90;;;;;;2066258;28;19918;-79
2023/07/27 03:13:58;;;;;;;;;;;13.70;99.90;;;;;;2064518;28;20099;-79
2023/07/27 03:14:58;;;;;;;;;;;13.70;99.90;;;;;;2087257;28;20443;-80
2023/07/27 03:16:01;;;;;;;;;;;13.70;99.90;;;;;;2089035;28;19912;-80
2023/07/27 03:17:02;;;;;;;;;;;13.70;99.90;;;;;;2073998;28;19995;-79
2023/07/27 03:18:03;;;;;;;;;;;13.70;99.90;;;;;;2066359;28;19949;-79
2023/07/27 03:19:03;;;;;;;;;;;13.70;99.90;;;;;;2079627;28;20100;-79
2023/07/27 03:20:04;;;;;;;;;;;13.60;99.90;;;;;;2074417;28;20012;-78
2023/07/27 03:21:05;;;;;;;;;;;13.60;99.90;;;;;;2081772;28;19936;-79
2023/07/27 03:22:06;;;;;;;;;;;13.60;99.90;;;;;;2069568;28;19918;-79
2023/07/27 03:23:07;;;;;;;;;;;13.60;99.90;;;;;;2055023;28;20384;-80
2023/07/27 03:24:08;;;;;;;;;;;13.50;99.90;;;;;;2080560;28;20607;-79
2023/07/27 03:25:08;;;;;;;;;;;13.50;99.90;;;;;;2081976;28;20364;-80
2023/07/27 03:26:11;;;;;;;;;;;13.50;99.90;;;;;;2075879;28;20011;-79
2023/07/27 03:27:11;;;;;;;;;;;13.50;99.90;;;;;;2068431;28;20730;-79
2023/07/27 03:28:12;;;;;;;;;;;13.50;99.90;;;;;;2076155;28;19923;-79
2023/07/27 03:29:12;;;;;;;;;;;13.50;99.90;;;;;;2075895;28;19983;-79
2023/07/27 03:30:13;;;;;;;;;;;13.40;99.90;;;;;;2067867;28;19920;-79
2023/07/27 03:31:17;;;;;;;;;;;13.40;99.90;;;;;;2078018;28;19928;-78
2023/07/27 03:32:18;;;;;;;;;;;13.40;99.90;;;;;;2068058;28;20411;-79
2023/07/27 03:33:18;;;;;;;;;;;13.40;99.90;;;;;;2075807;28;19917;-78
2023/07/27 03:34:19;;;;;;;;;;;13.40;99.90;;;;;;2075933;28;19913;-78
2023/07/27 03:35:20;;;;;;;;;;;13.40;99.90;;;;;;2077942;28;19913;-78
2023/07/27 03:36:20;;;;;;;;;;;13.40;99.90;;;;;;2067583;28;20408;-78
2023/07/27 03:37:21;;;;;;;;;;;13.40;99.90;;;;;;2075308;28;20033;-79
2023/07/27 03:38:22;;;;;;;;;;;13.40;99.90;;;;;;2075184;28;19925;-78
2023/07/27 03:39:22;;;;;;;;;;;13.40;99.90;;;;;;2076193;28;20343;-78
2023/07/27 03:40:23;;;;;;;;;;;13.40;99.90;;;;;;2076078;28;20388;-77
2023/07/27 03:41:23;;;;;;;;;;;13.40;99.90;;;;;;2069827;28;20439;-78
2023/07/27 03:42:24;;;;;;;;;;;13.40;99.90;;;;;;2059676;28;19914;-78
2023/07/27 03:43:24;;;;;;;;;;;13.40;99.90;;;;;;2070339;28;20176;-78
2023/07/27 03:44:25;;;;;;;;;;;13.40;99.90;;;;;;2074192;28;19913;-78
2023/07/27 03:45:25;;;;;;;;;;;13.40;99.90;;;;;;2071260;28;19960;-79
2023/07/27 03:46:26;;;;;;;;;;;13.40;99.90;;;;;;2076087;28;20347;-79
2023/07/27 03:47:26;;;;;;;;;;;13.40;99.90;;;;;;2076017;28;19949;-78
2023/07/27 03:48:27;;;;;;;;;;;13.40;99.90;;;;;;2075155;28;19913;-79
2023/07/27 03:49:27;;;;;;;;;;;13.50;99.90;;;;;;2064568;28;19917;-78
2023/07/27 03:50:31;;;;;;;;;;;13.50;99.90;;;;;;2069760;28;19992;-77
2023/07/27 03:51:31;;;;;;;;;;;13.50;99.90;;;;;;2059751;28;19992;-78
2023/07/27 03:52:32;;;;;;;;;;;13.50;99.90;;;;;;2055760;28;20404;-77
2023/07/27 03:53:33;;;;;;;;;;;13.50;99.90;;;;;;2051763;28;19915;-77
2023/07/27 03:54:33;;;;;;;;;;;13.50;99.90;;;;;;2065236;28;20282;-77
2023/07/27 03:55:34;;;;;;;;;;;13.50;99.90;;;;;;2074068;28;19983;-78
2023/07/27 03:56:35;;;;;;;;;;;13.50;99.90;;;;;;2059543;28;19965;-79
2023/07/27 03:57:35;;;;;;;;;;;13.50;99.90;;;;;;2062782;28;19918;-78
2023/07/27 03:58:36;;;;;;;;;;;13.50;99.90;;;;;;2078772;28;19929;-79
2023/07/27 03:59:37;;;;;;;;;;;13.50;99.90;;;;;;2078749;28;19920;-79
2023/07/27 04:00:38;;;;;;;;;;;13.50;99.90;;;;;;2073468;28;20412;-79
2023/07/27 04:01:39;;;;;;;;;;;13.60;99.90;;;;;;2066391;28;19949;-78
2023/07/27 04:02:39;;;;;;;;;;;13.60;99.90;;;;;;2058992;28;20119;-78
2023/07/27 04:03:40;;;;;;;;;;;13.60;99.90;;;;;;2075669;28;19909;-77
2023/07/27 04:04:40;;;;;;;;;;;13.70;99.90;;;;;;2074853;28;19913;-78
2023/07/27 04:05:41;;;;;;;;;;;13.70;99.90;;;;;;2076607;28;20380;-78
2023/07/27 04:06:42;;;;;;;;;;;13.70;99.90;;;;;;2087027;28;19912;-78
2023/07/27 04:07:43;;;;;;;;;;;13.70;99.90;;;;;;2087369;28;19917;-77
2023/07/27 04:08:43;;;;;;;;;;;13.70;99.90;;;;;;2078033;28;20003;-78
2023/07/27 04:09:44;;;;;;;;;;;13.80;99.90;;;;;;2076127;28;19937;-79
2023/07/27 04:10:45;;;;;;;;;;;13.70;99.90;;;;;;2074657;28;20387;-79
2023/07/27 04:11:45;;;;;;;;;;;13.80;99.90;;;;;;2067756;28;19921;-79
2023/07/27 04:12:46;;;;;;;;;;;13.80;99.90;;;;;;2077689;28;19917;-79
2023/07/27 04:13:46;;;;;;;;;;;13.80;99.90;;;;;;2062565;28;19914;-79
2023/07/27 04:14:48;;;;;;;;;;;13.90;99.90;;;;;;2075831;28;21043;-80
2023/07/27 04:15:48;;;;;;;;;;;13.90;99.90;;;;;;2075592;28;20250;-79
2023/07/27 04:16:49;;;;;;;;;;;13.90;99.90;;;;;;2081856;28;19924;-79
2023/07/27 04:17:50;;;;;;;;;;;13.90;99.90;;;;;;2080054;28;19963;-79
2023/07/27 04:18:50;;;;;;;;;;;13.90;99.90;;;;;;2070366;28;19920;-79
2023/07/27 04:19:51;;;;;;;;;;;14.00;99.90;;;;;;2059527;28;19914;-79
2023/07/27 04:20:51;;;;;;;;;;;14.00;99.90;;;;;;2072285;28;19913;-79
2023/07/27 04:21:52;;;;;;;;;;;14.20;99.90;;;;;;2076944;28;20111;-80
2023/07/27 04:22:53;;;;;;;;;;;14.30;99.90;;;;;;2075494;28;19931;-79
2023/07/27 04:23:54;;;;;;;;;;;14.60;99.90;;;;;;2060597;28;19921;-79
2023/07/27 04:24:54;;;;;;;;;;;14.90;99.90;;;;;;2071740;28;19949;-79
2023/07/27 04:25:55;;;;;;;;;;;15.20;99.90;;;;;;2089677;28;20128;-79
2023/07/27 04:26:55;;;;;;;;;;;15.60;99.90;;;;;;2080451;28;19914;-79
2023/07/27 04:27:56;;;;;;;;;;;15.90;99.90;;;;;;2075439;28;19920;-79
2023/07/27 04:28:56;;;;;;;;;;;16.20;99.90;;;;;;2075686;28;20431;-79
2023/07/27 04:29:57;;;;;;;;;;;16.50;99.90;;;;;;2069017;28;19914;-79
2023/07/27 04:30:57;;;;;;;;;;;16.70;99.90;;;;;;2067480;28;20002;-77
2023/07/27 04:31:58;;;;;;;;;;;17.00;99.90;;;;;;2075455;28;19995;-78
2023/07/27 04:32:58;;;;;;;;;;;17.20;99.90;;;;;;2075608;28;19917;-78
2023/07/27 04:33:59;;;;;;;;;;;17.30;99.90;;;;;;2077530;28;19960;-79
2023/07/27 04:34:59;;;;;;;;;;;17.50;99.90;;;;;;2075857;28;20352;-78
2023/07/27 04:36:01;;;;;;;;;;;17.70;99.90;;;;;;2067433;28;19921;-77
2023/07/27 04:37:01;;;;;;;;;;;17.80;99.90;;;;;;2067418;28;19917;-78
2023/07/27 04:38:02;;;;;;;;;;;18.00;99.90;;;;;;2067163;28;19989;-81
2023/07/27 04:39:02;;;;;;;;;;;18.10;99.90;;;;;;2067167;28;19959;-82
2023/07/27 04:40:03;;;;;;;;;;;18.30;99.90;;;;;;2061107;28;19917;-81
2023/07/27 04:41:03;;;;;;;;;;;18.50;99.90;;;;;;2075557;28;19928;-82
2023/07/27 04:42:04;;;;;;;;;;;18.60;99.90;;;;;;2075384;28;20020;-83
2023/07/27 04:43:05;;;;;;;;;;;18.80;99.90;;;;;;2067340;28;19925;-83
2023/07/27 04:44:05;;;;;;;;;;;18.90;99.90;;;;;;2069357;28;20127;-80
2023/07/27 04:45:06;;;;;;;;;;;19.00;99.90;;;;;;2067399;28;19965;-81
2023/07/27 04:46:07;;;;;;;;;;;19.00;99.90;;;;;;2070327;28;19917;-82
2023/07/27 04:47:07;;;;;;;;;;;19.20;99.90;;;;;;2077138;28;19916;-82
2023/07/27 04:48:08;;;;;;;;;;;19.40;99.90;;;;;;2077441;28;19924;-81
2023/07/27 04:49:09;;;;;;;;;;;19.50;99.90;;;;;;2075237;28;19956;-81
2023/07/27 04:50:09;;;;;;;;;;;19.70;99.90;;;;;;2076057;28;20396;-83
2023/07/27 04:51:10;;;;;;;;;;;19.70;99.90;;;;;;2089462;28;19987;-84
2023/07/27 04:52:10;;;;;;;;;;;19.70;99.90;;;;;;2082234;28;19917;-82
2023/07/27 04:53:11;;;;;;;;;;;19.80;99.90;;;;;;2067406;28;20347;-83
2023/07/27 04:54:12;;;;;;;;;;;19.80;99.90;;;;;;2074370;28;19940;-78
2023/07/27 04:55:12;;;;;;;;;;;19.80;99.90;;;;;;2075615;28;20380;-78
2023/07/27 04:56:13;;;;;;;;;;;19.70;99.90;;;;;;2077190;28;20411;-78
2023/07/27 04:57:13;;;;;;;;;;;19.50;99.90;;;;;;2073006;28;19919;-78
2023/07/27 04:58:14;;;;;;;;;;;19.40;99.90;;;;;;2079302;28;20022;-79
2023/07/27 04:59:14;;;;;;;;;;;19.50;99.90;;;;;;2077955;28;19964;-78
2023/07/27 05:00:15;;;;;;;;;;;19.70;99.90;;;;;;2076179;28;19917;-79
2023/07/27 05:01:16;;;;;;;;;;;19.80;99.90;;;;;;2075659;28;20415;-79
2023/07/27 05:02:16;;;;;;;;;;;20.00;99.90;;;;;;2075462;28;20474;-77
2023/07/27 05:03:17;;;;;;;;;;;20.10;99.90;;;;;;2075312;28;20363;-79
2023/07/27 05:04:18;;;;;;;;;;;20.30;99.90;;;;;;2075517;28;19924;-78
2023/07/27 05:05:18;;;;;;;;;;;20.50;99.90;;;;;;2073686;28;19966;-79
2023/07/27 05:06:19;;;;;;;;;;;20.70;99.90;;;;;;2067336;28;19952;-79
2023/07/27 05:07:20;;;;;;;;;;;20.90;99.90;;;;;;2062580;28;19988;-78
2023/07/27 05:08:21;;;;;;;;;;;21.00;99.90;;;;;;2065496;28;19917;-77
2023/07/27 05:09:21;;;;;;;;;;;21.10;99.90;;;;;;2069067;28;19913;-79
2023/07/27 05:10:23;;;;;;;;;;;21.20;99.90;;;;;;2078991;28;19921;-80
2023/07/27 05:11:24;;;;;;;;;;;21.30;99.90;;;;;;2087205;28;20432;-80
2023/07/27 05:12:24;;;;;;;;;;;21.40;99.90;;;;;;2075917;28;19985;-80
2023/07/27 05:13:25;;;;;;;;;;;21.50;99.90;;;;;;2075365;28;19948;-80
2023/07/27 05:14:26;;;;;;;;;;;21.40;99.90;;;;;;2067335;28;19929;-81
2023/07/27 05:15:26;;;;;;;;;;;21.30;99.90;;;;;;2078373;28;19921;-80
2023/07/27 05:16:27;;;;;;;;;;;21.30;99.90;;;;;;2079494;28;20320;-81
2023/07/27 05:17:27;;;;;;;;;;;21.30;99.70;;;;;;2074963;28;19917;-82
2023/07/27 05:18:28;;;;;;;;;;;21.20;99.60;;;;;;2075830;28;19947;-81
2023/07/27 05:19:28;;;;;;;;;;;21.20;99.30;;;;;;2077066;28;19921;-81
2023/07/27 05:20:32;;;;;;;;;;;21.20;99.20;;;;;;2066360;28;20582;-80
2023/07/27 05:21:33;;;;;;;;;;;21.10;99.30;;;;;;2074622;28;20025;-81
2023/07/27 05:22:33;;;;;;;;;;;21.10;99.40;;;;;;2075834;28;19937;-81
2023/07/27 05:23:34;;;;;;;;;;;21.00;99.30;;;;;;2075089;28;19917;-81
2023/07/27 05:24:34;;;;;;;;;;;21.00;99.40;;;;;;2074894;28;19978;-81
2023/07/27 05:25:35;;;;;;;;;;;20.90;99.30;;;;;;2077847;28;19924;-81
2023/07/27 05:26:35;;;;;;;;;;;20.80;99.50;;;;;;2075741;28;19971;-79
2023/07/27 05:27:36;;;;;;;;;;;20.80;99.60;;;;;;2075189;28;19972;-79
2023/07/27 05:28:37;;;;;;;;;;;20.90;99.60;;;;;;2068837;28;19924;-80
2023/07/27 05:29:37;;;;;;;;;;;20.90;99.60;;;;;;2069072;28;20096;-80
2023/07/27 05:30:38;;;;;;;;;;;21.00;99.20;;;;;;2074484;28;19932;-81
2023/07/27 05:31:38;;;;;;;;;;;21.00;99.00;;;;;;2075926;28;19913;-79
2023/07/27 05:32:39;;;;;;;;;;;21.00;99.40;;;;;;2076920;28;19925;-78
2023/07/27 05:33:39;;;;;;;;;;;21.00;98.70;;;;;;2075101;28;19917;-79
2023/07/27 05:34:40;;;;;;;;;;;20.90;98.50;;;;;;2075743;28;20383;-80
2023/07/27 05:35:40;;;;;;;;;;;20.90;98.80;;;;;;2075872;28;20079;-80
2023/07/27 05:36:41;;;;;;;;;;;20.90;98.90;;;;;;2077777;28;20368;-78
2023/07/27 05:37:46;;;;;;;;;;;20.80;98.90;;;;;;2075749;28;19914;-80
2023/07/27 05:38:47;;;;;;;;;;;20.80;99.10;;;;;;2075580;28;19925;-80
2023/07/27 05:39:47;;;;;;;;;;;20.90;98.90;;;;;;2075985;28;20280;-79
2023/07/27 05:40:48;;;;;;;;;;;21.00;98.70;;;;;;2075504;28;19959;-80
2023/07/27 05:41:48;;;;;;;;;;;21.20;98.20;;;;;;2075803;28;19913;-79
2023/07/27 05:42:49;;;;;;;;;;;21.40;97.70;;;;;;2076728;28;19920;-79
2023/07/27 05:43:49;;;;;;;;;;;21.70;97.20;;;;;;2074963;28;19948;-80
2023/07/27 05:44:50;;;;;;;;;;;21.90;96.50;;;;;;2075274;28;20016;-80
2023/07/27 05:45:50;;;;;;;;;;;22.10;95.90;;;;;;2066836;28;20273;-80
2023/07/27 05:46:54;;;;;;;;;;;22.30;95.60;;;;;;2077244;28;19913;-80
2023/07/27 05:47:54;;;;;;;;;;;22.40;95.40;;;;;;2075779;28;19917;-80
2023/07/27 05:48:55;;;;;;;;;;;22.50;94.60;;;;;;2074996;28;19913;-79
2023/07/27 05:49:58;;;;;;;;;;;22.60;94.30;;;;;;2075054;28;19953;-80
2023/07/27 05:50:58;;;;;;;;;;;22.60;94.00;;;;;;2077482;28;20395;-78
2023/07/27 05:51:59;;;;;;;;;;;22.60;93.80;;;;;;2074848;28;19924;-79
2023/07/27 05:52:59;;;;;;;;;;;22.60;93.30;;;;;;2062020;28;19929;-79
2023/07/27 05:54:00;;;;;;;;;;;22.50;93.10;;;;;;2075066;28;19959;-79
2023/07/27 05:55:00;;;;;;;;;;;22.40;93.10;;;;;;2077650;28;19962;-80
2023/07/27 05:56:01;;;;;;;;;;;22.10;93.50;;;;;;2075022;28;19981;-80
2023/07/27 05:57:02;;;;;;;;;;;22.00;93.80;;;;;;2075061;28;19982;-80
2023/07/27 05:58:02;;;;;;;;;;;21.80;94.40;;;;;;2075341;28;20008;-80
2023/07/27 05:59:03;;;;;;;;;;;21.70;94.80;;;;;;2075340;28;19924;-81